Time;durP1;ratioP1;P1;durP2;ratioP2;P2;SDS_P1;SDS_P2;PMS_P1;PMS_P2;Temp;Humidity;BMP_temperature;BMP_pressure;BME280_temperature;BME280_humidity;BME280_pressure;Samples;Min_cycle;Max_cycle;Signal;HPM_P1;HPM_P2
2020/12/31 00:02:18;;;;;;;9.45;1.45;;;16.70;78.30;;;;;;4980400;28;20049;-82
2020/12/31 00:04:45;;;;;;;8.45;0.80;;;16.70;78.50;;;;;;4980561;28;20033;-77
2020/12/31 00:07:12;;;;;;;1.90;0.82;;;16.50;78.90;;;;;;4978810;28;20026;-73
2020/12/31 00:09:38;;;;;;;3.83;0.90;;;16.30;80.20;;;;;;4981894;28;20143;-79
2020/12/31 00:12:10;;;;;;;2.80;0.90;;;16.10;82.50;;;;;;4981305;28;20034;-75
2020/12/31 00:14:37;;;;;;;5.65;0.93;;;16.00;84.50;;;;;;4978259;28;20149;-76
2020/12/31 00:17:04;;;;;;;5.10;1.02;;;15.90;85.50;;;;;;4980721;28;20026;-76
2020/12/31 00:19:34;;;;;;;6.85;1.30;;;15.50;86.50;;;;;;4979764;28;20404;-75
2020/12/31 00:22:00;;;;;;;3.13;0.85;;;15.40;87.50;;;;;;4980018;28;20038;-81
2020/12/31 00:24:27;;;;;;;10.18;0.80;;;15.30;88.00;;;;;;4980442;28;20129;-74
2020/12/31 00:26:54;;;;;;;9.77;1.48;;;15.20;88.30;;;;;;4980109;28;20143;-75
2020/12/31 00:29:20;;;;;;;7.82;1.20;;;15.10;88.40;;;;;;4981361;28;20030;-79
2020/12/31 00:31:47;;;;;;;8.60;1.25;;;15.00;89.80;;;;;;4979750;28;21473;-78
2020/12/31 00:34:14;;;;;;;5.80;1.30;;;14.70;90.40;;;;;;4979024;28;20037;-76
2020/12/31 00:36:40;;;;;;;6.63;1.23;;;14.60;90.90;;;;;;4979283;28;20029;-74
2020/12/31 00:39:07;;;;;;;5.22;0.68;;;14.50;91.30;;;;;;4979004;28;20023;-79
2020/12/31 00:41:34;;;;;;;5.38;0.70;;;14.30;91.90;;;;;;4979113;28;20034;-74
2020/12/31 00:44:00;;;;;;;6.80;1.20;;;14.20;92.40;;;;;;4961771;28;20087;-76
2020/12/31 00:46:27;;;;;;;3.80;1.17;;;14.10;92.70;;;;;;4981351;28;20034;-77
2020/12/31 00:51:29;;;;;;;5.70;0.90;;;14.00;92.90;;;;;;5367213;22;20116;-77
2020/12/31 00:53:56;;;;;;;3.40;0.93;;;14.00;92.90;;;;;;4992041;28;20038;-78
2020/12/31 00:56:22;;;;;;;6.18;0.80;;;14.00;93.00;;;;;;4993196;28;20022;-76
2020/12/31 00:58:49;;;;;;;5.05;1.08;;;13.90;92.90;;;;;;4993479;28;20061;-75
2020/12/31 01:01:16;;;;;;;8.27;1.48;;;13.80;93.00;;;;;;4993395;28;20105;-74
2020/12/31 01:03:42;;;;;;;4.85;0.82;;;13.90;93.20;;;;;;4992759;28;20030;-78
2020/12/31 01:06:09;;;;;;;6.63;1.20;;;13.90;93.30;;;;;;4992327;28;20027;-75
2020/12/31 01:08:36;;;;;;;5.78;1.15;;;13.70;93.40;;;;;;4987544;28;20073;-75
2020/12/31 01:11:04;;;;;;;7.72;1.20;;;13.60;93.60;;;;;;4991232;28;20049;-74
2020/12/31 01:13:30;;;;;;;7.05;0.98;;;13.60;93.90;;;;;;4992900;28;20027;-77
2020/12/31 01:15:57;;;;;;;10.18;1.05;;;13.50;95.10;;;;;;4992912;28;20034;-76
2020/12/31 01:18:24;;;;;;;6.32;0.90;;;13.30;95.60;;;;;;4991686;28;20061;-78
2020/12/31 01:20:53;;;;;;;4.43;1.73;;;13.40;95.30;;;;;;4990588;28;20026;-72
2020/12/31 01:23:20;;;;;;;3.35;1.30;;;13.20;96.00;;;;;;4990269;28;20022;-79
2020/12/31 01:25:50;;;;;;;3.50;1.00;;;13.10;96.00;;;;;;4992531;28;20058;-80
2020/12/31 01:28:20;;;;;;;4.15;1.08;;;13.20;95.80;;;;;;4991407;28;20399;-80
2020/12/31 01:30:47;;;;;;;6.78;1.38;;;13.30;95.80;;;;;;4992879;28;20602;-81
2020/12/31 01:33:15;;;;;;;3.38;1.05;;;13.00;96.30;;;;;;4992859;28;20035;-82
2020/12/31 01:35:42;;;;;;;6.97;1.40;;;12.70;97.00;;;;;;4993028;28;20064;-78
2020/12/31 01:38:09;;;;;;;5.07;1.30;;;12.60;97.90;;;;;;4993281;28;20382;-80
2020/12/31 01:40:48;;;;;;;6.68;1.70;;;12.70;98.60;;;;;;4976819;28;20526;-80
2020/12/31 01:43:14;;;;;;;;;;;12.90;99.90;;;;;;4982226;28;20050;-79
2020/12/31 01:45:40;;;;;;;7.45;1.80;;;12.90;99.90;;;;;;4966276;28;19915;-78
2020/12/31 01:48:08;;;;;;;3.60;1.70;;;12.80;99.90;;;;;;4964579;28;20075;-78
2020/12/31 01:50:35;;;;;;;7.50;1.42;;;12.60;99.90;;;;;;4967756;28;20170;-78
2020/12/31 01:53:02;;;;;;;7.97;2.70;;;12.50;99.90;;;;;;4967971;28;20035;-77
2020/12/31 01:55:29;;;;;;;6.10;2.80;;;12.30;99.90;;;;;;4963953;28;20031;-78
2020/12/31 01:57:56;;;;;;;13.73;2.80;;;12.20;99.90;;;;;;4967238;28;20030;-78
2020/12/31 02:00:23;;;;;;;8.13;3.20;;;12.20;99.90;;;;;;4967400;28;20031;-78
2020/12/31 02:02:49;;;;;;;11.82;5.60;;;12.40;99.90;;;;;;4966827;28;20031;-79
2020/12/31 02:05:19;;;;;;;9.80;4.38;;;12.30;99.90;;;;;;4967365;28;20035;-80
2020/12/31 02:07:47;;;;;;;8.07;4.50;;;12.20;99.90;;;;;;4969918;28;20495;-78
2020/12/31 02:10:16;;;;;;;15.80;4.88;;;12.00;99.90;;;;;;4981761;28;20126;-78
2020/12/31 02:12:46;;;;;;;12.73;3.85;;;12.00;99.90;;;;;;4982120;28;20043;-78
2020/12/31 02:15:22;;;;;;;14.05;4.85;;;12.00;99.90;;;;;;4966092;28;20027;-73
2020/12/31 02:17:48;;;;;;;9.15;4.20;;;11.90;99.90;;;;;;4967602;28;20098;-75
2020/12/31 02:20:15;;;;;;;13.32;5.05;;;11.80;99.90;;;;;;4966418;28;20105;-76
2020/12/31 02:22:42;;;;;;;19.52;5.55;;;11.70;99.90;;;;;;4967087;28;20028;-77
2020/12/31 02:25:09;;;;;;;18.52;5.28;;;11.80;99.90;;;;;;4967132;28;20035;-77
2020/12/31 02:27:35;;;;;;;9.02;4.18;;;11.80;99.90;;;;;;4965719;28;20050;-77
2020/12/31 02:30:02;;;;;;;8.35;3.63;;;11.80;99.90;;;;;;4967377;28;20031;-76
2020/12/31 02:32:29;;;;;;;11.15;4.43;;;11.70;99.90;;;;;;4964070;28;20045;-76
2020/12/31 02:34:56;;;;;;;11.75;4.93;;;11.60;99.90;;;;;;4964820;28;20094;-77
2020/12/31 02:37:22;;;;;;;17.15;5.35;;;11.40;99.90;;;;;;4966214;28;20053;-83
2020/12/31 02:39:49;;;;;;;10.65;4.53;;;11.30;99.90;;;;;;4964781;28;20057;-75
2020/12/31 02:42:16;;;;;;;12.70;5.03;;;11.20;99.90;;;;;;4967533;28;20042;-75
2020/12/31 02:44:42;;;;;;;12.45;5.15;;;11.30;99.90;;;;;;4962433;28;20033;-81
2020/12/31 02:47:09;;;;;;;9.18;4.45;;;11.20;99.90;;;;;;4966230;28;20026;-75
2020/12/31 02:49:36;;;;;;;13.32;5.30;;;11.20;99.90;;;;;;4965798;28;20026;-80
2020/12/31 02:52:02;;;;;;;13.23;6.18;;;11.20;99.90;;;;;;4964909;28;20055;-77
2020/12/31 02:54:32;;;;;;;15.02;7.70;;;11.30;99.90;;;;;;4962755;28;20038;-80
2020/12/31 02:56:58;;;;;;;21.77;8.85;;;11.20;99.90;;;;;;4967261;28;20083;-78
2020/12/31 02:59:25;;;;;;;14.25;7.18;;;11.20;99.90;;;;;;4966578;28;20124;-76
2020/12/31 03:01:57;;;;;;;17.02;6.97;;;11.30;99.90;;;;;;4964227;28;20031;-80
2020/12/31 03:04:24;;;;;;;14.15;6.07;;;11.30;99.90;;;;;;4980080;28;20042;-78
2020/12/31 03:06:50;;;;;;;13.73;5.07;;;11.40;99.90;;;;;;4965450;28;20337;-78
2020/12/31 03:09:17;;;;;;;75.47;34.72;;;11.50;99.90;;;;;;4964110;28;20046;-77
2020/12/31 03:11:44;;;;;;;22.42;11.73;;;11.20;99.90;;;;;;4966691;28;20059;-77
2020/12/31 03:14:10;;;;;;;23.67;8.45;;;11.10;99.90;;;;;;4964448;28;20055;-78
2020/12/31 03:16:37;;;;;;;49.00;23.50;;;11.10;99.90;;;;;;4973139;28;20030;-76
2020/12/31 03:19:04;;;;;;;66.45;27.38;;;11.10;99.90;;;;;;4959913;28;20050;-79
2020/12/31 03:21:31;;;;;;;83.47;35.72;;;11.30;99.90;;;;;;4965869;28;20109;-79
2020/12/31 03:23:58;;;;;;;60.53;23.35;;;11.10;99.90;;;;;;4964512;28;20041;-76
2020/12/31 03:26:27;;;;;;;24.77;8.52;;;10.90;99.90;;;;;;4962976;28;20038;-78
2020/12/31 03:28:53;;;;;;;;;;;10.70;99.90;;;;;;4965315;28;20035;-78
2020/12/31 03:31:20;;;;;;;9.35;4.45;;;10.70;99.90;;;;;;4965605;28;21757;-78
2020/12/31 03:33:49;;;;;;;9.25;4.03;;;10.50;99.90;;;;;;4961777;28;20041;-77
2020/12/31 03:36:16;;;;;;;9.65;4.50;;;10.50;99.90;;;;;;4964210;28;20089;-77
2020/12/31 03:38:43;;;;;;;8.57;3.08;;;10.50;99.90;;;;;;4965393;28;20078;-77
2020/12/31 03:41:09;;;;;;;10.75;2.97;;;10.40;99.90;;;;;;4963237;28;20027;-78
2020/12/31 03:43:36;;;;;;;7.78;2.85;;;10.30;99.90;;;;;;4965077;28;20027;-75
2020/12/31 03:46:02;;;;;;;11.25;2.70;;;10.30;99.90;;;;;;4963425;28;20023;-77
2020/12/31 03:48:29;;;;;;;13.45;5.47;;;10.40;99.90;;;;;;4963288;28;20034;-78
2020/12/31 03:50:56;;;;;;;16.90;5.70;;;10.40;99.90;;;;;;4964357;28;20422;-78
2020/12/31 03:53:22;;;;;;;26.48;9.60;;;10.60;99.90;;;;;;4966071;28;20041;-79
2020/12/31 03:55:49;;;;;;;27.75;11.05;;;10.80;99.90;;;;;;4967879;28;20069;-78
2020/12/31 03:58:15;;;;;;;52.75;23.60;;;10.90;99.90;;;;;;4970952;28;20034;-76
2020/12/31 04:00:42;;;;;;;38.28;15.52;;;10.80;99.90;;;;;;4976435;28;20162;-76
2020/12/31 04:03:09;;;;;;;40.03;17.38;;;10.80;99.90;;;;;;4968642;28;20026;-79
2020/12/31 04:05:35;;;;;;;46.45;16.67;;;10.90;99.90;;;;;;4981793;28;20315;-78
2020/12/31 04:08:02;;;;;;;27.38;11.07;;;11.10;99.90;;;;;;4968635;28;20162;-80
2020/12/31 04:10:30;;;;;;;26.63;11.15;;;11.10;99.90;;;;;;4964844;28;20427;-76
2020/12/31 04:12:56;;;;;;;9.52;4.63;;;11.20;99.90;;;;;;4966109;28;20031;-77
2020/12/31 04:15:23;;;;;;;7.45;2.88;;;11.20;99.90;;;;;;4980140;28;20051;-75
2020/12/31 04:17:50;;;;;;;12.27;4.38;;;11.10;99.90;;;;;;4965791;28;20440;-78
2020/12/31 04:20:17;;;;;;;9.85;3.58;;;10.80;99.90;;;;;;4972442;28;20188;-78
2020/12/31 04:22:43;;;;;;;22.63;9.43;;;10.70;99.90;;;;;;4980028;28;20039;-79
2020/12/31 04:25:10;;;;;;;16.25;8.30;;;10.80;99.90;;;;;;4965715;28;20034;-80
2020/12/31 04:27:36;;;;;;;17.15;8.23;;;10.80;99.90;;;;;;4961721;28;20029;-85
2020/12/31 04:30:04;;;;;;;23.90;10.00;;;10.80;99.90;;;;;;4980313;28;20042;-82
2020/12/31 04:32:30;;;;;;;13.07;6.93;;;10.90;99.90;;;;;;4965294;28;20035;-78
2020/12/31 04:34:57;;;;;;;11.45;4.85;;;10.80;99.90;;;;;;4964119;28;20039;-79
2020/12/31 04:37:24;;;;;;;10.88;4.35;;;10.80;99.90;;;;;;4964075;28;20405;-81
2020/12/31 04:39:50;;;;;;;18.50;6.00;;;10.80;99.90;;;;;;4980660;28;20093;-79
2020/12/31 04:42:17;;;;;;;16.55;8.77;;;10.80;99.90;;;;;;4980152;28;20113;-79
2020/12/31 04:44:45;;;;;;;13.10;6.03;;;10.80;99.90;;;;;;4969349;28;20065;-79
2020/12/31 04:47:20;;;;;;;12.88;4.72;;;10.70;99.90;;;;;;4965034;28;20046;-75
2020/12/31 04:49:52;;;;;;;14.15;5.32;;;10.60;99.90;;;;;;4962559;28;20134;-78
2020/12/31 04:52:19;;;;;;;19.08;5.20;;;10.60;99.90;;;;;;4964095;28;20086;-77
2020/12/31 04:54:46;;;;;;;14.32;3.45;;;10.40;99.90;;;;;;4963570;28;20035;-77
2020/12/31 04:57:12;;;;;;;6.30;3.88;;;10.40;99.90;;;;;;4962273;28;20126;-80
2020/12/31 04:59:39;;;;;;;10.32;4.28;;;10.10;99.90;;;;;;4978919;28;20457;-79
2020/12/31 05:02:09;;;;;;;8.77;4.53;;;9.80;99.90;;;;;;4964135;28;20036;-81
2020/12/31 05:04:35;;;;;;;23.27;12.10;;;9.60;99.90;;;;;;4977305;28;20370;-80
2020/12/31 05:07:07;;;;;;;152.18;66.03;;;9.70;99.90;;;;;;4962511;28;20037;-79
2020/12/31 05:09:33;;;;;;;61.78;30.02;;;9.60;99.90;;;;;;4963746;28;20126;-76
2020/12/31 05:12:00;;;;;;;30.95;12.55;;;9.50;99.90;;;;;;4977087;28;20034;-76
2020/12/31 05:14:34;;;;;;;14.85;6.85;;;9.40;99.90;;;;;;4961037;28;20065;-79
2020/12/31 05:17:18;;;;;;;14.60;5.60;;;9.20;99.90;;;;;;4979016;28;20041;-72
2020/12/31 05:19:46;;;;;;;11.23;4.90;;;9.20;99.90;;;;;;4963569;28;20039;-72
2020/12/31 05:22:15;;;;;;;10.85;5.65;;;9.10;99.90;;;;;;4964585;28;20656;-74
2020/12/31 05:24:47;;;;;;;10.38;4.35;;;9.10;99.90;;;;;;4964826;28;20038;-74
2020/12/31 05:27:28;;;;;;;16.90;5.55;;;9.10;99.90;;;;;;4962928;28;20121;-72
2020/12/31 05:30:10;;;;;;;12.82;5.28;;;9.10;99.90;;;;;;4961202;28;20023;-72
2020/12/31 05:32:41;;;;;;;12.55;4.03;;;9.00;99.90;;;;;;4964791;28;20125;-73
2020/12/31 05:35:17;;;;;;;12.18;4.65;;;8.90;99.90;;;;;;4966882;28;20046;-72
2020/12/31 05:37:47;;;;;;;5.20;3.50;;;8.90;99.90;;;;;;4966114;28;20530;-73
2020/12/31 05:40:14;;;;;;;8.63;5.45;;;9.00;99.90;;;;;;4967745;28;20077;-74
2020/12/31 05:42:43;;;;;;;12.57;6.28;;;9.00;99.90;;;;;;4965273;28;20039;-75
2020/12/31 05:45:18;;;;;;;6.18;3.97;;;9.10;99.90;;;;;;4966814;28;20041;-77
2020/12/31 05:47:48;;;;;;;7.85;3.42;;;9.20;99.90;;;;;;4969366;28;20031;-74
2020/12/31 05:50:20;;;;;;;6.85;3.80;;;9.20;99.90;;;;;;4965614;28;20134;-75
2020/12/31 05:52:49;;;;;;;11.95;4.30;;;9.10;99.90;;;;;;4966450;28;20318;-76
2020/12/31 05:55:21;;;;;;;7.75;3.83;;;9.00;99.90;;;;;;4967358;28;20030;-77
2020/12/31 05:57:52;;;;;;;6.30;3.85;;;9.10;99.90;;;;;;4966233;28;20023;-77
2020/12/31 06:00:23;;;;;;;6.82;3.55;;;9.10;99.90;;;;;;4966172;28;20061;-76
2020/12/31 06:02:53;;;;;;;5.65;3.75;;;9.00;99.90;;;;;;4967269;28;20907;-75
2020/12/31 06:05:21;;;;;;;9.50;4.72;;;8.90;99.90;;;;;;4966368;28;20039;-76
2020/12/31 06:07:50;;;;;;;6.18;4.10;;;8.70;99.90;;;;;;4965712;28;20027;-76
2020/12/31 06:10:30;;;;;;;8.70;4.72;;;8.60;99.90;;;;;;4980260;28;20046;-77
2020/12/31 06:12:59;;;;;;;6.45;3.88;;;8.60;99.90;;;;;;4966492;28;20101;-75
2020/12/31 06:15:31;;;;;;;8.00;3.97;;;8.50;99.90;;;;;;4966107;28;20030;-77
2020/12/31 06:18:00;;;;;;;7.43;3.65;;;8.50;99.90;;;;;;4966314;28;20028;-77
2020/12/31 06:20:30;;;;;;;9.95;4.47;;;8.50;99.90;;;;;;4967044;28;20037;-75
2020/12/31 06:22:56;;;;;;;13.82;5.03;;;8.50;99.90;;;;;;4967785;28;20019;-75
2020/12/31 06:25:35;;;;;;;8.60;5.15;;;8.40;99.90;;;;;;4966531;28;20751;-74
2020/12/31 06:28:06;;;;;;;6.60;4.15;;;8.30;99.90;;;;;;4962714;28;20090;-74
2020/12/31 06:30:34;;;;;;;14.85;4.35;;;8.30;99.90;;;;;;4966475;28;20152;-75
2020/12/31 06:33:26;;;;;;;5.88;4.18;;;8.30;99.90;;;;;;4966013;28;20034;-75
2020/12/31 06:35:59;;;;;;;10.65;4.07;;;8.30;99.90;;;;;;4954785;28;20321;-74
2020/12/31 06:38:48;;;;;;;8.05;4.00;;;8.40;99.90;;;;;;4968088;28;20039;-74
2020/12/31 06:41:53;;;;;;;9.15;3.92;;;8.50;99.90;;;;;;4966976;28;20045;-74
2020/12/31 06:44:20;;;;;;;10.60;4.97;;;8.60;99.90;;;;;;4929021;28;21619;-75
2020/12/31 06:46:48;;;;;;;12.07;4.47;;;8.50;99.90;;;;;;4964994;28;20060;-74
2020/12/31 06:49:17;;;;;;;7.22;4.40;;;8.50;99.90;;;;;;4966252;28;20027;-74
2020/12/31 06:51:44;;;;;;;7.07;3.75;;;8.40;99.90;;;;;;4965172;28;20050;-75
2020/12/31 06:54:11;;;;;;;9.75;3.97;;;8.20;99.90;;;;;;4966670;28;20062;-75
2020/12/31 06:56:51;;;;;;;6.30;3.60;;;8.20;99.90;;;;;;4966856;28;20023;-73
2020/12/31 06:59:32;;;;;;;6.10;4.00;;;8.30;99.90;;;;;;4964774;28;20049;-75
2020/12/31 07:02:00;;;;;;;6.50;3.65;;;8.30;99.90;;;;;;4964807;28;20030;-77
2020/12/31 07:04:30;;;;;;;14.30;4.05;;;8.40;99.90;;;;;;4964587;28;20035;-76
2020/12/31 07:07:01;;;;;;;10.32;4.53;;;8.20;99.90;;;;;;4964658;28;20130;-76
2020/12/31 07:09:38;;;;;;;10.77;4.93;;;8.00;99.90;;;;;;4965944;28;20370;-75
2020/12/31 07:12:10;;;;;;;11.10;5.22;;;8.00;99.90;;;;;;4967801;28;20038;-75
2020/12/31 07:14:37;;;;;;;6.30;3.80;;;8.00;99.90;;;;;;5476374;23;20040;-75
2020/12/31 07:17:10;;;;;;;7.65;3.90;;;8.10;99.90;;;;;;4977194;28;20041;-73
2020/12/31 07:19:44;;;;;;;7.68;4.43;;;8.10;99.90;;;;;;4981393;28;20042;-75
2020/12/31 07:22:14;;;;;;;7.72;4.63;;;8.00;99.90;;;;;;4982467;28;20044;-76
2020/12/31 07:25:00;;;;;;;14.13;4.00;;;7.90;99.90;;;;;;4981620;28;20033;-76
2020/12/31 07:27:34;;;;;;;7.60;4.00;;;7.90;99.90;;;;;;4981204;28;20448;-74
2020/12/31 07:30:13;;;;;;;11.80;4.80;;;7.90;99.90;;;;;;4982254;28;20360;-75
2020/12/31 07:32:54;;;;;;;6.93;4.43;;;7.90;99.90;;;;;;4981428;28;20049;-74
2020/12/31 07:35:26;;;;;;;10.10;4.53;;;7.90;99.90;;;;;;4981105;28;20089;-75
2020/12/31 07:37:54;;;;;;;9.93;4.72;;;7.80;99.90;;;;;;4981263;28;20033;-74
2020/12/31 07:40:36;;;;;;;6.72;3.15;;;7.70;99.90;;;;;;4981131;28;20031;-73
2020/12/31 07:43:04;;;;;;;8.93;4.10;;;7.70;99.90;;;;;;4980815;28;20039;-73
2020/12/31 07:45:32;;;;;;;8.00;4.13;;;7.80;99.90;;;;;;4981253;28;20030;-74
2020/12/31 07:47:59;;;;;;;8.43;4.57;;;7.90;99.90;;;;;;4981649;28;20034;-73
2020/12/31 07:50:27;;;;;;;10.98;4.35;;;7.90;99.90;;;;;;4980617;28;20381;-74
2020/12/31 07:52:54;;;;;;;7.63;4.30;;;7.90;99.90;;;;;;4980793;28;20126;-74
2020/12/31 07:55:21;;;;;;;10.07;4.03;;;7.80;99.90;;;;;;4980181;28;20137;-73
2020/12/31 07:57:48;;;;;;;9.82;5.05;;;7.70;99.90;;;;;;4979763;28;20027;-75
2020/12/31 08:00:20;;;;;;;8.50;4.30;;;7.50;99.90;;;;;;4981453;28;20097;-75
2020/12/31 08:02:51;;;;;;;5.68;3.60;;;7.60;99.90;;;;;;4980200;28;20026;-75
2020/12/31 08:05:24;;;;;;;7.45;3.88;;;7.70;99.90;;;;;;4981209;28;20034;-75
2020/12/31 08:07:53;;;;;;;5.97;3.85;;;7.70;99.90;;;;;;4980098;28;20061;-73
2020/12/31 08:10:20;;;;;;;7.40;4.63;;;7.70;99.90;;;;;;4980320;28;20030;-74
2020/12/31 08:13:03;;;;;;;14.70;4.72;;;7.50;99.90;;;;;;4980946;28;20034;-73
2020/12/31 08:15:31;;;;;;;6.25;4.65;;;7.50;99.90;;;;;;4980220;28;20061;-73
2020/12/31 08:18:05;;;;;;;6.78;4.32;;;7.50;99.90;;;;;;4981912;28;20117;-72
2020/12/31 08:20:34;;;;;;;7.43;4.53;;;7.30;99.90;;;;;;4980918;28;20089;-74
2020/12/31 08:23:01;;;;;;;;;;;7.10;99.90;;;;;;4982071;28;20042;-74
2020/12/31 08:25:40;;;;;;;9.20;4.45;;;7.00;99.90;;;;;;4980825;28;19917;-74
2020/12/31 08:28:08;;;;;;;9.93;5.43;;;6.90;99.90;;;;;;4979420;28;20041;-74
2020/12/31 08:30:37;;;;;;;7.15;4.82;;;7.00;99.90;;;;;;4981123;28;20027;-74
2020/12/31 08:33:07;;;;;;;7.50;4.63;;;7.10;99.90;;;;;;4980403;28;20084;-74
2020/12/31 08:35:46;;;;;;;9.63;5.00;;;7.00;99.90;;;;;;4962659;28;20282;-74
2020/12/31 08:38:19;;;;;;;8.30;4.95;;;7.00;99.90;;;;;;4980447;28;20031;-74
2020/12/31 08:40:54;;;;;;;9.75;4.65;;;7.10;99.90;;;;;;4981030;28;20019;-74
2020/12/31 08:43:30;;;;;;;8.27;4.88;;;7.20;99.90;;;;;;4980822;28;20401;-73
2020/12/31 08:45:57;;;;;;;7.57;5.05;;;7.30;99.90;;;;;;4961318;28;20038;-73
2020/12/31 08:48:29;;;;;;;7.03;4.72;;;7.30;99.90;;;;;;4979422;28;20031;-74
2020/12/31 08:51:09;;;;;;;8.40;5.00;;;7.30;99.90;;;;;;4979067;28;20042;-74
2020/12/31 08:54:00;;;;;;;13.45;6.07;;;7.30;99.90;;;;;;4978285;28;20035;-73
2020/12/31 08:56:33;;;;;;;10.75;5.38;;;7.40;99.90;;;;;;4981246;28;20605;-74
2020/12/31 08:59:16;;;;;;;9.55;5.50;;;7.40;99.90;;;;;;4979018;28;20033;-74
2020/12/31 09:01:46;;;;;;;12.10;5.43;;;7.20;99.90;;;;;;4979491;28;20177;-74
2020/12/31 09:04:20;;;;;;;11.57;5.45;;;7.20;99.90;;;;;;4979324;28;20085;-74
2020/12/31 09:06:48;;;;;;;12.25;5.63;;;7.10;99.90;;;;;;4980981;28;20038;-75
2020/12/31 09:09:23;;;;;;;11.82;5.05;;;7.20;99.90;;;;;;4983284;28;20034;-74
2020/12/31 09:12:04;;;;;;;6.97;5.15;;;7.20;99.90;;;;;;4983613;28;20034;-73
2020/12/31 09:14:38;;;;;;;8.85;4.43;;;7.20;99.90;;;;;;4984705;28;20034;-73
2020/12/31 09:17:32;;;;;;;8.80;4.70;;;7.30;99.90;;;;;;4985028;28;20034;-73
2020/12/31 09:19:59;;;;;;;9.80;5.18;;;7.30;99.90;;;;;;4981824;28;20101;-74
2020/12/31 09:22:25;;;;;;;10.10;4.35;;;7.40;99.90;;;;;;4984729;28;20057;-73
2020/12/31 09:24:53;;;;;;;5.95;4.07;;;7.40;99.90;;;;;;4985344;28;20109;-73
2020/12/31 09:27:26;;;;;;;8.30;3.85;;;7.40;99.90;;;;;;4985121;28;20367;-76
2020/12/31 09:30:03;;;;;;;10.57;4.05;;;7.50;99.90;;;;;;4983680;28;20037;-73
2020/12/31 09:32:33;;;;;;;11.93;4.22;;;7.50;99.90;;;;;;4984925;28;20166;-73
2020/12/31 09:35:02;;;;;;;10.75;5.05;;;7.30;99.90;;;;;;4984333;28;20022;-73
2020/12/31 09:37:29;;;;;;;9.38;4.55;;;7.30;99.90;;;;;;4984008;28;20372;-74
2020/12/31 09:39:56;;;;;;;10.27;4.57;;;7.20;99.90;;;;;;4983835;28;20035;-76
2020/12/31 09:42:22;;;;;;;4.50;3.88;;;7.30;99.90;;;;;;4982547;28;20030;-73
2020/12/31 09:44:49;;;;;;;8.90;3.80;;;7.30;99.90;;;;;;4984154;28;20301;-73
2020/12/31 09:47:16;;;;;;;7.65;3.95;;;7.10;99.90;;;;;;4983648;28;20030;-74
2020/12/31 09:49:42;;;;;;;7.95;4.45;;;7.00;99.90;;;;;;4983654;28;20193;-74
2020/12/31 09:52:09;;;;;;;12.45;4.43;;;6.90;99.90;;;;;;4983600;28;20870;-73
2020/12/31 09:54:35;;;;;;;6.40;3.92;;;6.80;99.90;;;;;;4984833;28;20038;-73
2020/12/31 09:57:07;;;;;;;9.30;4.88;;;6.70;99.90;;;;;;4984986;28;20065;-72
2020/12/31 09:59:33;;;;;;;11.23;4.03;;;6.70;99.90;;;;;;4982104;28;20389;-74
2020/12/31 10:02:03;;;;;;;16.38;4.13;;;6.70;99.90;;;;;;4984587;28;20081;-74
2020/12/31 10:04:29;;;;;;;9.98;4.25;;;6.80;99.90;;;;;;4984063;28;20656;-74
2020/12/31 10:06:56;;;;;;;5.00;3.20;;;6.90;99.90;;;;;;4983237;28;21277;-73
2020/12/31 10:09:23;;;;;;;5.47;3.13;;;7.00;99.90;;;;;;4983090;28;20352;-72
2020/12/31 10:11:54;;;;;;;10.05;4.55;;;7.10;99.90;;;;;;4983796;28;20034;-74
2020/12/31 10:14:20;;;;;;;5.32;3.83;;;7.10;99.90;;;;;;4984060;28;20329;-73
2020/12/31 10:16:47;;;;;;;7.30;4.15;;;7.00;99.90;;;;;;4982232;28;20050;-74
2020/12/31 10:19:14;;;;;;;12.98;4.22;;;6.90;99.90;;;;;;4983401;28;20031;-73
2020/12/31 10:21:44;;;;;;;11.13;3.65;;;6.70;99.90;;;;;;4984076;28;20101;-72
2020/12/31 10:24:10;;;;;;;5.93;3.25;;;6.70;99.90;;;;;;4981877;28;20328;-73
2020/12/31 10:26:37;;;;;;;9.10;3.45;;;6.80;99.90;;;;;;4983135;28;20030;-74
2020/12/31 10:29:04;;;;;;;12.15;3.55;;;6.90;99.90;;;;;;4982339;28;20034;-73
2020/12/31 10:31:30;;;;;;;5.55;3.97;;;6.90;99.90;;;;;;4982081;28;20041;-73
2020/12/31 10:33:57;;;;;;;6.97;3.88;;;6.80;99.90;;;;;;4981820;28;20034;-73
2020/12/31 10:36:24;;;;;;;7.78;3.42;;;6.70;99.90;;;;;;4981736;28;20695;-74
2020/12/31 10:38:51;;;;;;;4.18;2.50;;;6.70;99.90;;;;;;4983349;28;20085;-72
2020/12/31 10:41:17;;;;;;;5.13;3.30;;;6.70;99.90;;;;;;4983314;28;20031;-71
2020/12/31 10:43:44;;;;;;;4.93;2.70;;;6.70;99.90;;;;;;4981072;28;20105;-72
2020/12/31 10:46:14;;;;;;;9.05;2.50;;;6.60;99.90;;;;;;4982456;28;20026;-72
2020/12/31 10:48:41;;;;;;;5.57;3.20;;;6.60;99.90;;;;;;4981917;28;20392;-72
2020/12/31 10:51:07;;;;;;;6.18;2.58;;;6.60;99.90;;;;;;4982599;28;20358;-73
2020/12/31 10:53:33;;;;;;;7.35;2.47;;;6.70;99.90;;;;;;4982428;28;20362;-73
2020/12/31 10:56:00;;;;;;;4.95;2.13;;;6.80;99.90;;;;;;4981686;28;20544;-75
2020/12/31 10:58:27;;;;;;;4.43;2.38;;;6.70;99.90;;;;;;4968287;28;20095;-74
2020/12/31 11:00:56;;;;;;;3.55;2.30;;;6.50;99.90;;;;;;4982483;28;20033;-74
2020/12/31 11:03:23;;;;;;;4.60;2.85;;;6.60;99.90;;;;;;4981317;28;20093;-74
2020/12/31 11:05:50;;;;;;;8.18;3.95;;;6.60;99.90;;;;;;4982516;28;20110;-74
2020/12/31 11:08:16;;;;;;;5.20;2.97;;;6.50;99.90;;;;;;4981784;28;20053;-75
2020/12/31 11:10:43;;;;;;;6.60;3.00;;;6.40;99.90;;;;;;4981324;28;20034;-74
2020/12/31 11:13:13;;;;;;;3.85;2.83;;;6.30;99.90;;;;;;4981722;28;20392;-77
2020/12/31 11:15:40;;;;;;;6.65;2.28;;;6.20;99.90;;;;;;4982706;28;20121;-73
2020/12/31 11:18:07;;;;;;;5.70;2.40;;;6.20;99.90;;;;;;4982387;28;20027;-73
2020/12/31 11:20:34;;;;;;;4.07;2.65;;;6.20;99.90;;;;;;4982067;28;20420;-73
2020/12/31 11:23:00;;;;;;;6.85;2.42;;;6.30;99.90;;;;;;4981927;28;20170;-73
2020/12/31 11:25:27;;;;;;;6.35;2.03;;;6.40;99.90;;;;;;4981755;28;20045;-74
2020/12/31 11:27:54;;;;;;;6.30;3.30;;;6.40;99.90;;;;;;4981361;28;20019;-73
2020/12/31 11:30:20;;;;;;;8.35;2.83;;;6.40;99.90;;;;;;4982314;28;20037;-73
2020/12/31 11:32:47;;;;;;;4.38;2.17;;;6.30;99.90;;;;;;4963763;28;20124;-74
2020/12/31 11:35:14;;;;;;;5.53;2.40;;;6.20;99.90;;;;;;4981226;28;20132;-73
2020/12/31 11:37:40;;;;;;;4.78;2.33;;;6.30;99.90;;;;;;4982026;28;20125;-72
2020/12/31 11:40:07;;;;;;;5.78;2.47;;;6.30;99.90;;;;;;4981168;28;20433;-74
2020/12/31 11:42:37;;;;;;;7.13;2.17;;;6.30;99.90;;;;;;4981127;28;20080;-73
2020/12/31 11:45:05;;;;;;;7.43;2.35;;;6.30;99.90;;;;;;4981025;28;20124;-72
2020/12/31 11:47:32;;;;;;;12.90;2.23;;;6.30;99.90;;;;;;4980621;28;20035;-72
2020/12/31 11:49:59;;;;;;;3.85;2.17;;;6.10;99.90;;;;;;4981309;28;20289;-73
2020/12/31 11:52:26;;;;;;;6.68;2.67;;;6.10;99.90;;;;;;4980597;28;20030;-74
2020/12/31 11:54:52;;;;;;;3.42;1.95;;;6.10;99.90;;;;;;4980807;28;20054;-74
2020/12/31 11:57:22;;;;;;;4.97;2.30;;;6.00;99.90;;;;;;4982409;28;20167;-73
2020/12/31 11:59:48;;;;;;;5.05;2.00;;;6.00;99.90;;;;;;4981102;28;20100;-72
2020/12/31 12:02:15;;;;;;;8.85;2.42;;;6.00;99.90;;;;;;4981183;28;20053;-74
2020/12/31 12:04:42;;;;;;;6.10;2.00;;;6.10;99.90;;;;;;4981383;28;20513;-73
2020/12/31 12:07:08;;;;;;;8.45;1.98;;;6.20;99.90;;;;;;4980640;28;20476;-75
2020/12/31 12:09:35;;;;;;;3.15;1.83;;;6.40;99.90;;;;;;4980923;28;20030;-72
2020/12/31 12:12:05;;;;;;;4.25;2.25;;;6.50;99.90;;;;;;4980038;28;20097;-73
2020/12/31 12:14:32;;;;;;;3.70;2.50;;;6.60;99.90;;;;;;4980061;28;20038;-73
2020/12/31 12:17:00;;;;;;;4.45;2.00;;;6.70;99.90;;;;;;4982397;28;20046;-73
2020/12/31 12:19:28;;;;;;;3.20;1.83;;;6.70;99.90;;;;;;4980106;28;20022;-73
2020/12/31 12:21:59;;;;;;;3.28;2.28;;;6.70;99.90;;;;;;4980973;28;20046;-73
2020/12/31 12:24:27;;;;;;;3.33;2.10;;;6.70;99.90;;;;;;4979625;28;20042;-73
2020/12/31 12:26:54;;;;;;;2.92;1.48;;;6.70;99.90;;;;;;4980864;28;20042;-75
2020/12/31 12:29:21;;;;;;;3.58;1.90;;;6.70;99.90;;;;;;4979838;28;20073;-74
2020/12/31 12:31:48;;;;;;;4.95;2.22;;;6.70;99.90;;;;;;4981393;28;20026;-74
2020/12/31 12:34:17;;;;;;;4.63;2.15;;;6.70;99.90;;;;;;4981823;28;20458;-74
2020/12/31 12:36:49;;;;;;;6.07;2.30;;;6.70;99.90;;;;;;4979561;28;20367;-74
2020/12/31 12:39:16;;;;;;;3.30;1.70;;;6.60;99.90;;;;;;4980643;28;20030;-74
2020/12/31 12:41:43;;;;;;;6.47;2.33;;;6.50;99.90;;;;;;4979520;28;20297;-74
2020/12/31 12:44:11;;;;;;;10.55;2.10;;;6.30;99.90;;;;;;4979335;28;20026;-74
2020/12/31 12:46:38;;;;;;;4.25;2.00;;;6.20;99.90;;;;;;4980156;28;20271;-73
2020/12/31 12:49:04;;;;;;;4.18;1.98;;;6.20;99.90;;;;;;4980093;28;20166;-73
2020/12/31 12:51:35;;;;;;;10.77;3.08;;;6.10;99.90;;;;;;4980778;28;20038;-75
2020/12/31 12:54:02;;;;;;;3.90;1.90;;;6.00;99.90;;;;;;4981388;28;20710;-74
2020/12/31 12:56:28;;;;;;;6.90;2.25;;;6.00;99.90;;;;;;4980981;28;20022;-75
2020/12/31 12:58:58;;;;;;;10.52;2.42;;;5.90;99.90;;;;;;4978900;28;20030;-74
2020/12/31 13:01:25;;;;;;;7.40;2.33;;;5.90;99.90;;;;;;4979657;28;20440;-77
2020/12/31 13:03:51;;;;;;;8.02;2.05;;;5.90;99.90;;;;;;4980176;28;20034;-73